Time;durP1;ratioP1;P1;durP2;ratioP2;P2;SDS_P1;SDS_P2;PMS_P1;PMS_P2;Temp;Humidity;BMP_temperature;BMP_pressure;BME280_temperature;BME280_humidity;BME280_pressure;Samples;Min_cycle;Max_cycle;Signal;HPM_P1;HPM_P2
2024/02/29 00:02:12;;;;;;;15.00;0.63;;;;;;;34.68;nan;98610.25;7392201;19;20029;-53
2024/02/29 00:04:39;;;;;;;0.00;0.00;;;;;;;34.66;nan;98606.56;7394706;19;20014;-53
2024/02/29 00:07:05;;;;;;;0.10;0.10;;;;;;;34.66;nan;98600.78;7391588;19;20475;-53
2024/02/29 00:09:31;;;;;;;0.10;0.10;;;;;;;34.78;nan;98606.94;7391626;19;20017;-53
2024/02/29 00:11:57;;;;;;;0.40;0.17;;;;;;;34.82;nan;98604.19;7394254;19;20098;-53
2024/02/29 00:14:24;;;;;;;0.10;0.00;;;;;;;34.72;nan;98595.91;7395016;19;20010;-53
2024/02/29 00:16:50;;;;;;;0.20;0.10;;;;;;;34.53;nan;98604.69;7394684;19;20043;-53
2024/02/29 00:19:17;;;;;;;0.10;0.00;;;;;;;34.75;nan;98590.94;7394049;19;20487;-53
2024/02/29 00:21:44;;;;;;;0.00;0.00;;;;;;;36.52;nan;98590.09;7393823;19;20010;-53
2024/02/29 00:24:10;;;;;;;0.17;0.10;;;;;;;37.19;nan;98590.19;7393160;19;20015;-53
2024/02/29 00:26:36;;;;;;;0.90;0.30;;;;;;;37.37;nan;98586.22;7395749;19;20006;-53
2024/02/29 00:29:02;;;;;;;0.10;0.08;;;;;;;37.67;nan;98583.91;7393460;19;20012;-53
2024/02/29 00:31:28;;;;;;;0.10;0.00;;;;;;;37.84;nan;98585.69;7393595;19;20025;-53
2024/02/29 00:33:55;;;;;;;0.00;0.00;;;;;;;37.79;nan;98578.34;7396744;19;20021;-53
2024/02/29 00:36:21;;;;;;;0.10;0.10;;;;;;;37.67;nan;98583.91;7392826;19;20011;-53
2024/02/29 00:38:47;;;;;;;0.10;0.10;;;;;;;37.34;nan;98581.78;7395620;19;20538;-53
2024/02/29 00:41:14;;;;;;;0.10;0.00;;;;;;;37.46;nan;98579.88;7393267;19;20010;-53
2024/02/29 00:43:43;;;;;;;0.10;0.00;;;;;;;37.21;nan;98578.63;7391572;19;20027;-53
2024/02/29 00:46:10;;;;;;;0.20;0.10;;;;;;;37.37;nan;98574.59;7392729;19;20014;-53
2024/02/29 00:48:36;;;;;;;0.98;0.22;;;;;;;37.43;nan;98571.81;7397741;19;20025;-53
2024/02/29 00:51:03;;;;;;;0.10;0.10;;;;;;;37.48;nan;98574.13;7393591;19;20018;-53
2024/02/29 00:53:29;;;;;;;0.10;0.00;;;;;;;37.70;nan;98565.09;7392903;19;20013;-53
2024/02/29 00:55:55;;;;;;;0.20;0.20;;;;;;;37.63;nan;98566.41;7392363;19;20462;-53
2024/02/29 00:58:22;;;;;;;0.10;0.10;;;;;;;37.41;nan;98569.59;7390784;19;20014;-53
2024/02/29 01:00:48;;;;;;;0.08;0.00;;;;;;;37.29;nan;98568.59;7393889;19;20032;-53
2024/02/29 01:03:14;;;;;;;0.40;0.30;;;;;;;37.21;nan;98569.91;7393142;19;20011;-53
2024/02/29 01:05:40;;;;;;;0.10;0.00;;;;;;;37.37;nan;98574.59;7392798;19;20561;-53
2024/02/29 01:08:06;;;;;;;0.52;0.25;;;;;;;37.31;nan;98571.56;7400255;19;20036;-53
2024/02/29 01:10:32;;;;;;;1.23;0.10;;;;;;;37.38;nan;98576.81;7398287;19;20015;-53
2024/02/29 01:12:59;;;;;;;0.10;0.00;;;;;;;37.46;nan;98576.25;7402783;19;20017;-53
2024/02/29 01:15:25;;;;;;;0.10;0.00;;;;;;;37.64;nan;98568.59;7399459;19;20023;-53
2024/02/29 01:17:51;;;;;;;0.03;0.00;;;;;;;37.54;nan;98571.31;7402757;19;20082;-53
2024/02/29 01:20:17;;;;;;;1.85;0.10;;;;;;;37.44;nan;98573.28;7399194;19;20010;-53
2024/02/29 01:22:43;;;;;;;0.10;0.10;;;;;;;37.44;nan;98573.28;7399055;19;20033;-53
2024/02/29 01:25:11;;;;;;;0.10;0.00;;;;;;;37.40;nan;98576.88;7400667;19;20010;-53
2024/02/29 01:27:37;;;;;;;0.10;0.00;;;;;;;37.42;nan;98559.47;7398613;19;20034;-53
2024/02/29 01:30:03;;;;;;;0.10;0.10;;;;;;;37.42;nan;98565.28;7397412;19;20485;-53
2024/02/29 01:32:29;;;;;;;0.17;0.05;;;;;;;37.34;nan;98573.78;7400940;19;20007;-53
2024/02/29 01:34:56;;;;;;;0.10;0.00;;;;;;;37.25;nan;98552.56;7398656;19;20014;-53
2024/02/29 01:37:22;;;;;;;1.10;0.10;;;;;;;37.32;nan;98555.59;7403823;19;20014;-53
2024/02/29 01:39:48;;;;;;;0.10;0.10;;;;;;;37.21;nan;98558.28;7398868;19;20043;-55
2024/02/29 01:42:14;;;;;;;0.82;0.10;;;;;;;37.28;nan;98556.25;7399724;19;20023;-53
2024/02/29 01:44:52;;;;;;;0.10;0.10;;;;;;;37.44;nan;98555.88;7399133;19;20011;-53
2024/02/29 01:47:18;;;;;;;0.13;0.10;;;;;;;37.34;nan;98561.47;7402694;19;20026;-53
2024/02/29 01:49:48;;;;;;;0.85;0.10;;;;;;;37.41;nan;98552.19;7395993;19;20339;-52
2024/02/29 01:52:20;;;;;;;0.10;0.10;;;;;;;37.30;nan;98552.63;7399078;19;20015;-53
2024/02/29 01:54:46;;;;;;;0.20;0.05;;;;;;;37.46;nan;98547.94;7399235;19;20018;-53
2024/02/29 01:57:12;;;;;;;0.47;0.40;;;;;;;37.62;nan;98548.22;7398548;19;20022;-54
2024/02/29 01:59:41;;;;;;;0.40;0.10;;;;;;;37.77;nan;98552.84;7399690;19;20022;-54
2024/02/29 02:02:07;;;;;;;0.52;0.40;;;;;;;37.57;nan;98546.69;7398513;19;20011;-53
2024/02/29 02:04:33;;;;;;;0.10;0.10;;;;;;;37.46;nan;98553.72;7398833;19;20019;-53
2024/02/29 02:07:03;;;;;;;0.10;0.10;;;;;;;37.49;nan;98554.53;7397924;19;20031;-54
2024/02/29 02:09:29;;;;;;;0.10;0.00;;;;;;;37.33;nan;98551.25;7397889;19;20510;-54
2024/02/29 02:11:56;;;;;;;0.10;0.08;;;;;;;37.47;nan;98557.38;7397283;19;20466;-53
2024/02/29 02:14:22;;;;;;;0.20;0.20;;;;;;;37.59;nan;98548.88;7397652;19;20506;-53
2024/02/29 02:16:49;;;;;;;0.10;0.10;;;;;;;37.63;nan;98548.97;7398005;19;20014;-53
2024/02/29 02:19:16;;;;;;;2.60;0.20;;;;;;;37.49;nan;98549.41;7396035;19;20011;-53
2024/02/29 02:21:45;;;;;;;0.63;0.28;;;;;;;37.25;nan;98558.38;7396842;19;20018;-53
2024/02/29 02:24:12;;;;;;;0.55;0.10;;;;;;;37.38;nan;98536.16;7397568;19;20013;-53
2024/02/29 02:26:38;;;;;;;0.30;0.10;;;;;;;37.35;nan;98536.81;7397300;19;20017;-53
2024/02/29 02:29:06;;;;;;;0.20;0.10;;;;;;;37.43;nan;98536.94;7396846;19;20017;-53
2024/02/29 02:31:32;;;;;;;0.10;0.10;;;;;;;37.38;nan;98532.50;7397233;19;20122;-53
2024/02/29 02:33:58;;;;;;;0.10;0.10;;;;;;;37.78;nan;98530.34;7400615;19;20387;-53
2024/02/29 02:36:24;;;;;;;0.30;0.10;;;;;;;37.89;nan;98532.03;7397739;19;20014;-53
2024/02/29 02:38:51;;;;;;;5.00;0.20;;;;;;;37.89;nan;98523.28;7396916;19;20019;-53
2024/02/29 02:41:17;;;;;;;0.30;0.30;;;;;;;37.85;nan;98523.97;7397210;19;20029;-53
2024/02/29 02:43:49;;;;;;;0.10;0.10;;;;;;;37.74;nan;98519.38;7399410;19;20025;-53
2024/02/29 02:46:16;;;;;;;0.20;0.10;;;;;;;37.77;nan;98517.97;7394956;19;20018;-53
2024/02/29 02:48:43;;;;;;;0.75;0.20;;;;;;;37.73;nan;98517.16;7401651;19;20010;-53
2024/02/29 02:51:09;;;;;;;0.30;0.10;;;;;;;37.70;nan;98530.94;7394523;19;20011;-53
2024/02/29 02:53:35;;;;;;;1.48;0.10;;;;;;;37.35;nan;98525.19;7397666;19;20022;-53
2024/02/29 02:56:03;;;;;;;0.30;0.20;;;;;;;37.14;nan;98512.41;7397246;19;20032;-53
2024/02/29 02:58:30;;;;;;;0.52;0.10;;;;;;;37.10;nan;98515.25;7397384;19;20006;-53
2024/02/29 03:00:56;;;;;;;0.28;0.28;;;;;;;37.07;nan;98519.53;7397002;19;20017;-53
2024/02/29 03:03:22;;;;;;;0.50;0.25;;;;;;;36.93;nan;98517.06;7396040;19;20544;-53
2024/02/29 03:05:49;;;;;;;0.93;0.52;;;;;;;36.93;nan;98505.44;7397162;19;20404;-53
2024/02/29 03:08:15;;;;;;;0.10;0.00;;;;;;;36.90;nan;98503.94;7397041;19;20021;-53
2024/02/29 03:10:41;;;;;;;1.17;0.75;;;;;;;36.90;nan;98501.03;7392645;19;20017;-53
2024/02/29 03:13:07;;;;;;;0.30;0.22;;;;;;;36.62;nan;98503.31;7396395;19;20015;-53
2024/02/29 03:15:33;;;;;;;0.22;0.20;;;;;;;36.75;nan;98501.41;7397138;19;20021;-53
2024/02/29 03:17:59;;;;;;;0.50;0.35;;;;;;;36.80;nan;98497.13;7396151;19;20022;-53
2024/02/29 03:20:25;;;;;;;0.28;0.25;;;;;;;36.93;nan;98493.84;7396193;19;20011;-53
2024/02/29 03:22:51;;;;;;;0.20;0.20;;;;;;;36.92;nan;98498.19;7396393;19;20014;-53
2024/02/29 03:25:18;;;;;;;1.00;0.10;;;;;;;36.87;nan;98484.22;7395621;19;20010;-53
2024/02/29 03:27:44;;;;;;;0.15;0.15;;;;;;;36.75;nan;98484.75;7396003;19;20418;-53
2024/02/29 03:30:10;;;;;;;0.98;0.28;;;;;;;36.66;nan;98483.09;7393876;19;20018;-53
2024/02/29 03:32:36;;;;;;;1.00;0.22;;;;;;;36.58;nan;98476.38;7397368;19;20014;-54
2024/02/29 03:35:05;;;;;;;0.15;0.10;;;;;;;36.56;nan;98468.34;7395366;19;20094;-54
2024/02/29 03:37:31;;;;;;;0.20;0.10;;;;;;;36.66;nan;98464.94;7395116;19;20443;-53
2024/02/29 03:39:57;;;;;;;1.70;0.20;;;;;;;36.59;nan;98461.16;7397075;19;20026;-53
2024/02/29 03:42:23;;;;;;;0.05;0.03;;;;;;;36.59;nan;98455.38;7394943;19;20053;-53
2024/02/29 03:44:49;;;;;;;0.20;0.20;;;;;;;36.60;nan;98442.34;7395491;19;20017;-53
2024/02/29 03:47:15;;;;;;;0.70;0.20;;;;;;;36.78;nan;98453.56;7397266;19;20007;-53
2024/02/29 03:49:41;;;;;;;0.17;0.00;;;;;;;36.91;nan;98466.94;7393499;19;20480;-53
2024/02/29 03:52:07;;;;;;;0.15;0.13;;;;;;;36.74;nan;98447.69;7394640;19;20010;-53
2024/02/29 03:54:34;;;;;;;1.33;0.30;;;;;;;36.71;nan;98449.81;7392694;19;20014;-53
2024/02/29 03:57:00;;;;;;;0.55;0.38;;;;;;;36.77;nan;98457.91;7393955;19;20028;-53
2024/02/29 03:59:26;;;;;;;0.10;0.10;;;;;;;36.54;nan;98464.69;7394256;19;20010;-53
2024/02/29 04:01:52;;;;;;;1.40;0.63;;;;;;;36.54;nan;98459.59;7393380;19;20041;-53
2024/02/29 04:04:19;;;;;;;0.47;0.38;;;;;;;36.52;nan;98461.75;7393879;19;20027;-53
2024/02/29 04:06:46;;;;;;;0.43;0.43;;;;;;;36.48;nan;98471.06;7394850;19;20069;-53
2024/02/29 04:09:12;;;;;;;0.20;0.10;;;;;;;36.50;nan;98471.13;7394091;19;20362;-54
2024/02/29 04:11:38;;;;;;;6.65;0.40;;;;;;;36.23;nan;98454.53;7394347;19;20066;-53
2024/02/29 04:14:05;;;;;;;0.88;0.45;;;;;;;35.91;nan;98456.66;7393077;19;20394;-53
2024/02/29 04:16:35;;;;;;;0.25;0.10;;;;;;;35.79;nan;98466.53;7393597;19;20419;-53
2024/02/29 04:19:02;;;;;;;0.73;0.22;;;;;;;35.73;nan;98457.69;7394460;19;20022;-53
2024/02/29 04:21:28;;;;;;;0.13;0.10;;;;;;;35.58;nan;98458.75;7393787;19;20458;-53
2024/02/29 04:23:55;;;;;;;0.20;0.10;;;;;;;35.60;nan;98455.16;7393723;19;20014;-53
2024/02/29 04:26:23;;;;;;;1.40;1.10;;;;;;;35.44;nan;98455.47;7394608;19;20010;-53
2024/02/29 04:28:50;;;;;;;1.98;0.10;;;;;;;35.30;nan;98472.47;7394370;19;20037;-53
2024/02/29 04:31:17;;;;;;;0.00;0.00;;;;;;;34.70;nan;98473.63;7391988;19;20011;-53
2024/02/29 04:33:44;;;;;;;0.73;0.22;;;;;;;33.90;nan;98475.44;7397688;19;20015;-53
2024/02/29 04:36:10;;;;;;;0.05;0.00;;;;;;;32.92;nan;98470.56;7394087;19;20018;-53
2024/02/29 04:38:36;;;;;;;0.10;0.08;;;;;;;31.67;nan;98482.16;7394077;19;20017;-53
2024/02/29 04:41:02;;;;;;;0.17;0.17;;;;;;;31.02;nan;98486.50;7391641;19;20007;-53
2024/02/29 04:43:29;;;;;;;0.08;0.08;;;;;;;29.64;nan;98493.56;7391891;19;20036;-53
2024/02/29 04:45:55;;;;;;;2.65;0.20;;;;;;;30.52;nan;98505.03;7392201;19;20031;-53
2024/02/29 04:48:22;;;;;;;0.80;0.55;;;;;;;28.89;nan;98505.41;7396329;19;20049;-53
2024/02/29 04:50:48;;;;;;;0.15;0.05;;;;;;;30.91;nan;98498.94;7391934;19;20378;-53
2024/02/29 04:53:14;;;;;;;0.10;0.10;;;;;;;30.64;nan;98497.00;7392957;19;20463;-53
2024/02/29 04:55:41;;;;;;;2.05;0.50;;;;;;;31.03;nan;98490.88;7393380;19;20023;-53
2024/02/29 04:58:07;;;;;;;0.10;0.10;;;;;;;30.97;nan;98476.22;7392508;19;20011;-53
2024/02/29 05:00:33;;;;;;;0.10;0.10;;;;;;;31.24;nan;98491.09;7397047;19;20363;-53
2024/02/29 05:02:59;;;;;;;1.30;0.10;;;;;;;31.58;nan;98494.00;7392695;19;20011;-53
2024/02/29 05:05:27;;;;;;;0.52;0.50;;;;;;;31.42;nan;98497.66;7392969;19;20021;-53
2024/02/29 05:07:54;;;;;;;0.10;0.10;;;;;;;31.44;nan;98488.38;7392874;19;20060;-53
2024/02/29 05:10:21;;;;;;;0.45;0.20;;;;;;;28.33;nan;98486.59;7391188;19;20027;-53
2024/02/29 05:12:50;;;;;;;0.40;0.40;;;;;;;28.49;nan;98489.63;7397107;19;20023;-53
2024/02/29 05:15:19;;;;;;;6.82;0.43;;;;;;;28.37;nan;98497.56;7392915;19;20365;-53
2024/02/29 05:17:48;;;;;;;1.27;0.32;;;;;;;27.00;nan;98504.59;7395170;19;20018;-53
2024/02/29 05:20:15;;;;;;;7.22;0.38;;;;;;;27.50;nan;98500.44;7392473;19;20014;-53
2024/02/29 05:22:42;;;;;;;0.03;0.00;;;;;;;25.32;nan;98508.66;7396939;19;20051;-53
2024/02/29 05:25:11;;;;;;;3.40;0.25;;;;;;;24.97;nan;98497.03;7393025;19;20011;-53
2024/02/29 05:27:38;;;;;;;0.68;0.38;;;;;;;23.71;nan;98495.16;7391139;19;20086;-53
2024/02/29 05:30:05;;;;;;;1.08;0.10;;;;;;;24.84;nan;98489.00;7391129;19;20018;-53
2024/02/29 05:32:31;;;;;;;0.43;0.32;;;;;;;24.55;nan;98479.84;7394606;19;20011;-53
2024/02/29 05:34:57;;;;;;;0.95;0.25;;;;;;;24.00;nan;98490.16;7391822;19;20006;-53
2024/02/29 05:37:23;;;;;;;0.75;0.25;;;;;;;25.94;nan;98495.72;7392092;19;20006;-53
2024/02/29 05:39:50;;;;;;;4.10;0.63;;;;;;;26.37;nan;98504.91;7392383;19;20087;-53
2024/02/29 05:42:16;;;;;;;0.60;0.50;;;;;;;26.55;nan;98514.59;7394327;19;20006;-53
2024/02/29 05:44:42;;;;;;;0.57;0.30;;;;;;;23.85;nan;98518.16;7390907;19;20078;-53
2024/02/29 05:47:09;;;;;;;0.15;0.10;;;;;;;25.07;nan;98506.28;7390885;19;20458;-53
2024/02/29 05:49:35;;;;;;;1.08;0.20;;;;;;;25.87;nan;98498.78;7390810;19;20007;-53
2024/02/29 05:52:01;;;;;;;0.32;0.10;;;;;;;22.65;nan;98492.72;7392699;19;20018;-53
2024/02/29 05:54:27;;;;;;;0.30;0.20;;;;;;;24.18;nan;98481.47;7395557;19;20011;-53
2024/02/29 05:56:55;;;;;;;1.08;0.40;;;;;;;24.99;nan;98482.94;7396819;19;20401;-53
2024/02/29 05:59:22;;;;;;;0.20;0.20;;;;;;;25.08;nan;98476.41;7398349;19;20034;-53
2024/02/29 06:01:48;;;;;;;0.10;0.10;;;;;;;25.77;nan;98486.72;7398535;19;20027;-53
2024/02/29 06:04:14;;;;;;;0.10;0.10;;;;;;;24.64;nan;98504.69;7399521;19;20007;-53
2024/02/29 06:06:40;;;;;;;0.15;0.15;;;;;;;25.10;nan;98498.63;7398769;19;20006;-54
2024/02/29 06:09:06;;;;;;;0.80;0.47;;;;;;;26.48;nan;98487.06;7398354;19;20350;-53
2024/02/29 06:11:32;;;;;;;0.85;0.52;;;;;;;27.68;nan;98465.03;7395461;19;20015;-53
2024/02/29 06:14:00;;;;;;;0.20;0.20;;;;;;;27.95;nan;98457.94;7402049;19;20010;-53
2024/02/29 06:16:27;;;;;;;0.10;0.10;;;;;;;27.55;nan;98479.25;7397960;19;20466;-53
2024/02/29 06:18:53;;;;;;;0.10;0.10;;;;;;;27.71;nan;98480.19;7397916;19;20033;-53
2024/02/29 06:21:19;;;;;;;0.35;0.10;;;;;;;27.77;nan;98475.56;7397305;19;20359;-53
2024/02/29 06:23:45;;;;;;;0.10;0.00;;;;;;;27.75;nan;98474.69;7397181;19;20006;-53
2024/02/29 06:26:11;;;;;;;0.10;0.10;;;;;;;28.16;nan;98447.00;7401152;19;20014;-53
2024/02/29 06:28:37;;;;;;;1.27;0.40;;;;;;;28.11;nan;98448.16;7397751;19;20038;-53
2024/02/29 06:31:04;;;;;;;0.10;0.10;;;;;;;28.01;nan;98472.63;7395227;19;20493;-53
2024/02/29 06:33:30;;;;;;;5.03;0.82;;;;;;;27.17;nan;98491.28;7399614;19;20644;-54
2024/02/29 06:35:56;;;;;;;1.50;0.80;;;;;;;26.13;nan;98483.41;7399697;19;20011;-53
2024/02/29 06:38:22;;;;;;;7.05;0.73;;;;;;;26.53;nan;98477.34;7396821;19;20018;-53
2024/02/29 06:40:49;;;;;;;1.27;0.50;;;;;;;26.74;nan;98477.28;7395038;19;20011;-53
2024/02/29 06:43:15;;;;;;;2.67;0.98;;;;;;;26.90;nan;98486.06;7397564;19;20088;-53
2024/02/29 06:45:47;;;;;;;1.75;0.63;;;;;;;26.79;nan;98475.44;7398725;19;20011;-53
2024/02/29 06:48:15;;;;;;;2.00;0.93;;;;;;;26.40;nan;98492.25;7400526;19;20074;-54
2024/02/29 06:50:42;;;;;;;5.47;1.13;;;;;;;23.27;nan;98495.41;7395226;19;20017;-54
2024/02/29 06:53:09;;;;;;;0.60;0.15;;;;;;;23.92;nan;98486.72;7396106;19;20021;-55
2024/02/29 06:55:35;;;;;;;6.93;0.93;;;;;;;22.91;nan;98484.13;7397670;19;20006;-54
2024/02/29 06:58:03;;;;;;;1.90;0.40;;;;;;;21.78;nan;98491.44;7396708;19;20366;-54
2024/02/29 07:00:29;;;;;;;0.73;0.38;;;;;;;26.45;nan;98496.84;7396932;19;20044;-53
2024/02/29 07:02:56;;;;;;;0.25;0.10;;;;;;;23.09;nan;98518.81;7396478;19;20015;-53
2024/02/29 07:05:22;;;;;;;2.92;0.90;;;;;;;21.77;nan;98504.84;7395200;19;20027;-53
2024/02/29 07:07:52;;;;;;;9.13;0.95;;;;;;;21.07;nan;98511.09;7398289;19;20014;-53
2024/02/29 07:10:22;;;;;;;6.55;0.93;;;;;;;20.90;nan;98521.59;7394544;19;20022;-53
2024/02/29 07:12:49;;;;;;;3.53;0.38;;;;;;;20.78;nan;98515.66;7395609;19;20014;-53
2024/02/29 07:15:16;;;;;;;1.75;0.47;;;;;;;21.29;nan;98517.13;7393720;19;20024;-53
2024/02/29 07:17:42;;;;;;;6.93;0.73;;;;;;;20.15;nan;98509.47;7398275;19;20011;-53
2024/02/29 07:20:12;;;;;;;2.05;1.05;;;;;;;21.54;nan;98506.47;7396235;19;20010;-53
2024/02/29 07:22:40;;;;;;;3.55;0.73;;;;;;;21.98;nan;98507.28;7396019;19;20457;-53
2024/02/29 07:25:09;;;;;;;0.35;0.30;;;;;;;22.19;nan;98510.38;7395639;19;20070;-53
2024/02/29 07:27:37;;;;;;;1.67;0.32;;;;;;;22.51;nan;98498.75;7395008;19;20382;-53
2024/02/29 07:30:05;;;;;;;3.65;0.32;;;;;;;20.48;nan;98487.63;7396454;19;20343;-53
2024/02/29 07:32:31;;;;;;;2.15;0.50;;;;;;;22.12;nan;98494.22;7396153;19;20014;-53
2024/02/29 07:34:57;;;;;;;1.98;1.02;;;;;;;22.91;nan;98491.91;7395635;19;20014;-53
2024/02/29 07:37:23;;;;;;;0.10;0.10;;;;;;;24.69;nan;98490.09;7395193;19;20032;-53
2024/02/29 07:39:49;;;;;;;0.30;0.30;;;;;;;24.15;nan;98482.69;7396242;19;20070;-53
2024/02/29 07:42:15;;;;;;;3.33;0.68;;;;;;;24.95;nan;98482.66;7395081;19;20037;-53
2024/02/29 07:44:42;;;;;;;9.32;0.90;;;;;;;24.59;nan;98494.34;7394126;19;20006;-53
2024/02/29 07:47:08;;;;;;;1.30;0.52;;;;;;;24.89;nan;98507.88;7396663;19;20026;-53
2024/02/29 07:49:34;;;;;;;0.20;0.20;;;;;;;24.58;nan;98516.38;7395927;19;20082;-53
2024/02/29 07:52:01;;;;;;;2.15;0.38;;;;;;;24.54;nan;98507.56;7395844;19;20023;-53
2024/02/29 07:54:27;;;;;;;1.05;0.93;;;;;;;24.78;nan;98497.13;7395377;19;20379;-53
2024/02/29 07:56:53;;;;;;;0.40;0.40;;;;;;;24.60;nan;98498.69;7394727;19;20039;-53
2024/02/29 07:59:20;;;;;;;0.22;0.22;;;;;;;24.60;nan;98487.31;7395145;19;20018;-53
2024/02/29 08:01:48;;;;;;;0.22;0.20;;;;;;;24.57;nan;98497.06;7392408;19;20015;-54
2024/02/29 08:04:14;;;;;;;5.63;0.40;;;;;;;24.53;nan;98488.25;7394654;19;20017;-53
2024/02/29 08:06:40;;;;;;;5.85;0.40;;;;;;;24.68;nan;98493.56;7394880;19;20003;-54
2024/02/29 08:09:08;;;;;;;8.63;0.52;;;;;;;24.58;nan;98501.41;7393771;19;20014;-54
2024/02/29 08:11:34;;;;;;;1.40;0.38;;;;;;;24.70;nan;98490.84;7397508;19;20023;-54
2024/02/29 08:14:00;;;;;;;0.65;0.60;;;;;;;24.54;nan;98501.84;7393450;19;20014;-53
2024/02/29 08:16:26;;;;;;;4.03;0.57;;;;;;;24.42;nan;98505.94;7391104;19;20019;-53
2024/02/29 08:18:53;;;;;;;0.32;0.32;;;;;;;24.29;nan;98515.72;7397646;19;20010;-53
2024/02/29 08:21:19;;;;;;;1.05;0.47;;;;;;;24.38;nan;98514.22;7397625;19;20010;-53
2024/02/29 08:23:46;;;;;;;0.30;0.30;;;;;;;23.96;nan;98517.56;7394258;19;20007;-53
2024/02/29 08:26:12;;;;;;;0.47;0.47;;;;;;;25.08;nan;98516.31;7392783;19;20017;-53
2024/02/29 08:28:38;;;;;;;1.10;0.28;;;;;;;25.33;nan;98510.91;7394090;19;20014;-53
2024/02/29 08:31:07;;;;;;;0.88;0.43;;;;;;;24.86;nan;98503.41;7396530;19;20031;-53
2024/02/29 08:33:34;;;;;;;11.70;1.10;;;;;;;24.44;nan;98500.41;7394586;19;20509;-53
2024/02/29 08:36:02;;;;;;;0.20;0.17;;;;;;;23.95;nan;98499.75;7392637;19;20015;-54
2024/02/29 08:38:28;;;;;;;3.72;1.48;;;;;;;24.13;nan;98493.91;7392962;19;20029;-53
2024/02/29 08:40:54;;;;;;;9.95;0.43;;;;;;;23.48;nan;98502.59;7396261;19;20010;-54
2024/02/29 08:43:20;;;;;;;1.08;0.20;;;;;;;25.82;nan;98494.19;7393832;19;20015;-53
2024/02/29 08:45:46;;;;;;;0.35;0.35;;;;;;;27.80;nan;98487.88;7393478;19;20057;-53
2024/02/29 08:48:12;;;;;;;1.45;1.08;;;;;;;27.97;nan;98478.88;7396119;19;20022;-53
2024/02/29 08:50:39;;;;;;;1.75;0.25;;;;;;;28.90;nan;98478.22;7394315;19;20006;-53
2024/02/29 08:53:05;;;;;;;2.22;0.50;;;;;;;29.28;nan;98477.41;7392854;19;20033;-53
2024/02/29 08:55:31;;;;;;;4.25;0.95;;;;;;;29.84;nan;98480.22;7391872;19;20018;-53
2024/02/29 08:57:58;;;;;;;7.03;0.52;;;;;;;30.32;nan;98473.22;7393386;19;20010;-53
2024/02/29 09:00:24;;;;;;;0.22;0.15;;;;;;;30.80;nan;98480.47;7394927;19;20010;-53
2024/02/29 09:02:50;;;;;;;1.50;0.63;;;;;;;30.28;nan;98486.63;7392484;19;20018;-53
2024/02/29 09:05:16;;;;;;;0.22;0.22;;;;;;;27.55;nan;98499.28;7392523;19;20015;-53
2024/02/29 09:07:42;;;;;;;1.85;0.75;;;;;;;26.59;nan;98503.47;7393557;19;20014;-53
2024/02/29 09:10:09;;;;;;;3.85;0.40;;;;;;;27.16;nan;98495.50;7391274;19;20036;-53
2024/02/29 09:12:35;;;;;;;6.78;1.02;;;;;;;26.78;nan;98486.09;7394317;19;20652;-54
2024/02/29 09:15:02;;;;;;;1.95;1.02;;;;;;;27.02;nan;98481.88;7392029;19;20018;-54
2024/02/29 09:17:28;;;;;;;5.32;0.85;;;;;;;26.67;nan;98486.81;7394530;19;20357;-55
2024/02/29 09:19:55;;;;;;;7.93;0.30;;;;;;;25.64;nan;98487.31;7392843;19;20078;-55
2024/02/29 09:22:22;;;;;;;0.00;0.00;;;;;;;25.87;nan;98487.38;7391792;19;20007;-55
2024/02/29 09:24:48;;;;;;;4.18;0.57;;;;;;;25.05;nan;98500.44;7394526;19;20324;-55
2024/02/29 09:27:14;;;;;;;8.55;0.70;;;;;;;26.04;nan;98492.75;7393213;19;20023;-55
2024/02/29 09:29:41;;;;;;;3.00;0.90;;;;;;;23.86;nan;98486.31;7399366;19;20015;-55
2024/02/29 09:32:07;;;;;;;4.80;1.35;;;;;;;25.61;nan;98480.72;7399399;19;20062;-55
2024/02/29 09:34:37;;;;;;;0.20;0.15;;;;;;;22.96;nan;98488.00;7399257;19;20007;-55
2024/02/29 09:37:04;;;;;;;0.85;0.52;;;;;;;22.53;nan;98493.22;7401102;19;20018;-55
2024/02/29 09:39:30;;;;;;;0.95;0.55;;;;;;;22.81;nan;98493.94;7397258;19;20018;-55
2024/02/29 09:41:57;;;;;;;0.10;0.03;;;;;;;22.13;nan;98492.91;7399224;19;20462;-54
2024/02/29 09:44:24;;;;;;;1.42;0.55;;;;;;;22.42;nan;98502.28;7399607;19;20014;-55
2024/02/29 09:46:50;;;;;;;0.35;0.35;;;;;;;23.13;nan;98519.16;7399828;19;20023;-55
2024/02/29 09:49:16;;;;;;;1.58;0.43;;;;;;;22.05;nan;98523.41;7398252;19;20673;-55
2024/02/29 09:51:44;;;;;;;0.75;0.45;;;;;;;24.18;nan;98518.44;7394707;19;20518;-55
2024/02/29 09:54:19;;;;;;;0.10;0.10;;;;;;;26.60;nan;98518.47;7398785;19;20011;-55
2024/02/29 09:56:46;;;;;;;1.88;0.10;;;;;;;26.76;nan;98523.13;7398820;19;20019;-55
2024/02/29 09:59:17;;;;;;;3.63;0.52;;;;;;;23.96;nan;98523.25;7401146;19;20098;-55
2024/02/29 10:01:49;;;;;;;0.47;0.30;;;;;;;24.88;nan;98517.78;7399127;19;20018;-55
2024/02/29 10:04:16;;;;;;;5.82;0.98;;;;;;;25.76;nan;98516.59;7398295;19;20492;-55
2024/02/29 10:06:43;;;;;;;12.13;1.08;;;;;;;25.98;nan;98518.06;7398525;19;20033;-55
2024/02/29 10:09:09;;;;;;;3.60;0.75;;;;;;;26.83;nan;98519.25;7398173;19;20003;-55
2024/02/29 10:11:43;;;;;;;0.20;0.20;;;;;;;24.86;nan;98511.94;7398284;19;20007;-55
2024/02/29 10:14:20;;;;;;;0.30;0.30;;;;;;;23.90;nan;98526.41;7398651;19;20014;-55
2024/02/29 10:16:54;;;;;;;1.70;0.47;;;;;;;23.55;nan;98525.22;7397574;19;20014;-55
2024/02/29 10:19:21;;;;;;;0.73;0.25;;;;;;;26.29;nan;98515.84;7398663;19;20417;-55
2024/02/29 10:21:48;;;;;;;0.10;0.10;;;;;;;27.41;nan;98509.91;7399070;19;20013;-55
2024/02/29 10:24:14;;;;;;;11.40;1.20;;;;;;;28.24;nan;98501.84;7397713;19;20087;-55
2024/02/29 10:26:40;;;;;;;6.88;0.57;;;;;;;28.77;nan;98499.03;7397474;19;20025;-55
2024/02/29 10:29:10;;;;;;;4.55;0.50;;;;;;;28.29;nan;98503.56;7396966;19;20011;-55
2024/02/29 10:31:37;;;;;;;2.60;0.82;;;;;;;28.72;nan;98497.34;7394101;19;20439;-55
2024/02/29 10:34:03;;;;;;;6.03;0.55;;;;;;;23.97;nan;98508.41;7401279;19;20017;-55
2024/02/29 10:36:31;;;;;;;1.45;0.40;;;;;;;23.38;nan;98499.78;7397572;19;20043;-55
2024/02/29 10:38:58;;;;;;;2.28;0.13;;;;;;;23.68;nan;98487.06;7395678;19;20011;-55
2024/02/29 10:41:30;;;;;;;5.72;1.38;;;;;;;23.53;nan;98490.19;7397690;19;20025;-55
2024/02/29 10:44:01;;;;;;;2.60;0.40;;;;;;;22.23;nan;98482.34;7397190;19;20090;-55
2024/02/29 10:46:28;;;;;;;1.75;0.80;;;;;;;21.75;nan;98489.75;7397501;19;20560;-55
2024/02/29 10:49:10;;;;;;;1.55;0.52;;;;;;;23.55;nan;98479.72;7399833;19;20007;-55
2024/02/29 10:51:43;;;;;;;0.47;0.30;;;;;;;25.35;nan;98491.09;7394988;19;20010;-55
2024/02/29 10:54:42;;;;;;;3.33;0.28;;;;;;;25.41;nan;98485.78;7396484;19;20015;-55
2024/02/29 10:57:17;;;;;;;1.23;0.32;;;;;;;25.31;nan;98496.53;7395417;19;20011;-55
2024/02/29 10:59:49;;;;;;;0.10;0.10;;;;;;;25.94;nan;98501.44;7401279;19;20073;-55
2024/02/29 11:02:16;;;;;;;0.60;0.30;;;;;;;26.95;nan;98502.88;7396177;19;20047;-55
2024/02/29 11:04:42;;;;;;;1.08;0.50;;;;;;;29.01;nan;98500.31;7396845;19;20048;-55
2024/02/29 11:07:09;;;;;;;5.97;1.45;;;;;;;28.18;nan;98503.63;7397264;19;20019;-55
2024/02/29 11:09:37;;;;;;;0.10;0.10;;;;;;;29.36;nan;98497.88;7400124;19;20021;-55
2024/02/29 11:12:10;;;;;;;2.22;0.30;;;;;;;29.55;nan;98499.53;7396507;19;20045;-55
2024/02/29 11:14:39;;;;;;;7.72;1.20;;;;;;;29.02;nan;98481.75;7395657;19;20041;-55
2024/02/29 11:17:05;;;;;;;0.55;0.50;;;;;;;27.57;nan;98482.97;7397283;19;20007;-55
2024/02/29 11:19:32;;;;;;;6.60;0.85;;;;;;;24.53;nan;98476.84;7398135;19;20006;-55
2024/02/29 11:22:10;;;;;;;2.83;0.95;;;;;;;24.13;nan;98476.84;7396228;19;20388;-55
2024/02/29 11:24:39;;;;;;;0.73;0.30;;;;;;;24.84;nan;98480.47;7396327;19;20095;-55
2024/02/29 11:27:09;;;;;;;0.82;0.25;;;;;;;27.17;nan;98468.41;7395502;19;20014;-55
2024/02/29 11:29:36;;;;;;;7.80;0.30;;;;;;;27.40;nan;98479.81;7398444;19;20032;-55
2024/02/29 11:32:04;;;;;;;3.42;1.35;;;;;;;27.64;nan;98475.50;7395164;19;20014;-55
2024/02/29 11:34:30;;;;;;;0.63;0.40;;;;;;;23.94;nan;98478.34;7395860;19;20030;-55
2024/02/29 11:36:56;;;;;;;6.45;1.17;;;;;;;21.96;nan;98475.91;7395398;19;20011;-55
2024/02/29 11:39:23;;;;;;;1.58;0.43;;;;;;;24.15;nan;98472.03;7397463;19;20018;-55
2024/02/29 11:42:06;;;;;;;6.97;1.38;;;;;;;23.82;nan;98463.22;7395099;19;20018;-55
2024/02/29 11:44:33;;;;;;;0.20;0.20;;;;;;;24.44;nan;98461.31;7395044;19;20014;-54
2024/02/29 11:46:59;;;;;;;2.80;0.85;;;;;;;22.51;nan;98461.09;7394095;19;20015;-52
2024/02/29 11:49:26;;;;;;;0.45;0.20;;;;;;;22.28;nan;98461.47;7397242;19;20451;-52
2024/02/29 11:51:54;;;;;;;5.38;1.05;;;;;;;22.10;nan;98453.59;7393811;19;20011;-53